createdAt,value
2023-04-14T00:00:47.257Z,44.35
2023-04-14T00:03:14.785Z,44.20
2023-04-14T00:05:43.242Z,44.44
2023-04-14T00:08:11.466Z,44.23
2023-04-14T00:10:38.650Z,44.19
2023-04-14T00:13:05.861Z,44.17
2023-04-14T00:15:33.234Z,44.18
2023-04-14T00:18:00.532Z,44.33
2023-04-14T00:20:27.836Z,44.67
2023-04-14T00:22:55.285Z,44.54
2023-04-14T00:25:24.780Z,44.70
2023-04-14T00:27:52.038Z,44.48
2023-04-14T00:30:19.116Z,44.40
2023-04-14T00:32:51.680Z,44.55
2023-04-14T00:35:18.984Z,44.45
2023-04-14T00:37:48.287Z,44.21
2023-04-14T00:40:17.909Z,44.18
2023-04-14T00:42:48.447Z,43.42
2023-04-14T00:45:18.062Z,43.29
2023-04-14T00:47:50.426Z,43.48
2023-04-14T00:50:19.295Z,43.25
2023-04-14T00:52:49.912Z,43.08
2023-04-14T00:55:20.182Z,42.87
2023-04-14T00:57:50.927Z,42.73
2023-04-14T01:00:21.887Z,41.90
2023-04-14T01:02:53.404Z,39.03
2023-04-14T01:05:22.079Z,38.90
2023-04-14T01:07:53.340Z,39.22
2023-04-14T01:10:27.204Z,39.66
2023-04-14T01:13:33.667Z,40.70
2023-04-14T01:16:07.871Z,40.73
2023-04-14T01:19:01.306Z,40.76
2023-04-14T01:21:36.159Z,40.39
2023-04-14T01:24:24.778Z,40.06
2023-04-14T01:27:03.572Z,39.92
2023-04-14T01:29:55.229Z,39.96
2023-04-14T01:32:27.289Z,39.79
2023-04-14T01:34:59.007Z,39.80
2023-04-14T01:37:44.401Z,39.88
2023-04-14T01:40:16.950Z,40.27
2023-04-14T01:42:48.855Z,40.19
2023-04-14T01:45:29.215Z,40.61
2023-04-14T01:47:58.652Z,40.39
2023-04-14T01:50:30.273Z,40.10
2023-04-14T01:53:01.425Z,40.36
2023-04-14T01:55:31.268Z,40.00
2023-04-14T01:58:01.784Z,40.15
2023-04-14T02:00:31.158Z,39.98
2023-04-14T02:03:03.207Z,40.19
2023-04-14T02:05:38.372Z,40.05
2023-04-14T02:08:13.194Z,40.22
2023-04-14T02:10:46.621Z,40.27
2023-04-14T02:13:15.958Z,40.14
2023-04-14T02:15:44.407Z,40.48
2023-04-14T02:18:12.565Z,40.23
2023-04-14T02:20:48.086Z,40.23
2023-04-14T02:23:16.346Z,40.44
2023-04-14T02:25:55.292Z,39.89
2023-04-14T02:28:31.438Z,40.14
2023-04-14T02:31:03.248Z,39.96
2023-04-14T02:33:37.752Z,39.57
2023-04-14T02:36:22.610Z,39.67
2023-04-14T02:38:58.660Z,39.56
2023-04-14T02:41:31.689Z,39.17
2023-04-14T02:44:34.842Z,39.15
2023-04-14T02:47:07.688Z,39.22
2023-04-14T02:49:45.168Z,39.01
2023-04-14T02:52:15.751Z,38.82
2023-04-14T02:54:46.743Z,39.00
2023-04-14T02:57:15.370Z,38.69
2023-04-14T02:59:47.340Z,39.08
2023-04-14T03:02:19.421Z,38.76
2023-04-14T03:04:55.057Z,38.56
2023-04-14T03:07:35.016Z,38.30
2023-04-14T03:10:06.504Z,38.07
2023-04-14T03:12:36.314Z,37.86
2023-04-14T03:15:07.454Z,37.72
2023-04-14T03:17:38.336Z,37.04
2023-04-14T03:20:10.663Z,37.47
2023-04-14T03:22:41.938Z,37.29
2023-04-14T03:25:12.740Z,37.39
2023-04-14T03:27:44.785Z,37.48
2023-04-14T03:30:14.049Z,37.04
2023-04-14T03:32:47.174Z,37.11
2023-04-14T03:35:18.404Z,37.32
2023-04-14T03:37:48.797Z,37.55
2023-04-14T03:40:19.286Z,37.19
2023-04-14T03:42:49.311Z,37.13
2023-04-14T03:45:24.281Z,37.06
2023-04-14T03:48:02.715Z,36.75
2023-04-14T03:50:43.564Z,36.92
2023-04-14T03:53:16.492Z,36.74
2023-04-14T03:55:45.835Z,36.71
2023-04-14T03:58:21.773Z,36.59
2023-04-14T04:00:53.585Z,36.70
2023-04-14T04:03:23.173Z,36.72
2023-04-14T04:05:51.042Z,36.82
2023-04-14T04:08:19.062Z,36.50
2023-04-14T04:10:49.265Z,36.50
2023-04-14T04:13:21.085Z,36.99
2023-04-14T04:15:52.291Z,36.61
2023-04-14T04:18:25.840Z,36.27
2023-04-14T04:20:56.214Z,36.77
2023-04-14T04:23:35.116Z,36.34
2023-04-14T04:26:03.020Z,36.77
2023-04-14T04:28:36.951Z,37.04
2023-04-14T04:31:06.441Z,37.27
2023-04-14T04:33:37.566Z,37.64
2023-04-14T04:36:06.726Z,37.96
2023-04-14T04:38:39.589Z,37.87
2023-04-14T04:41:07.589Z,37.93
2023-04-14T04:43:38.357Z,38.36
2023-04-14T04:46:38.156Z,38.55
2023-04-14T04:49:15.046Z,38.78
2023-04-14T04:51:43.809Z,38.53
2023-04-14T04:54:11.310Z,38.67
2023-04-14T04:56:38.596Z,38.91
2023-04-14T04:59:06.772Z,39.04
2023-04-14T05:01:34.141Z,38.73
2023-04-14T05:04:03.895Z,38.73
2023-04-14T05:06:34.735Z,38.48
2023-04-14T05:09:09.415Z,38.88
2023-04-14T05:11:36.884Z,38.59
2023-04-14T05:14:04.483Z,38.66
2023-04-14T05:16:34.118Z,38.71
2023-04-14T05:19:03.364Z,38.87
2023-04-14T05:21:30.764Z,38.77
2023-04-14T05:24:00.890Z,39.27
2023-04-14T05:26:48.816Z,39.33
2023-04-14T05:29:20.870Z,39.49
2023-04-14T05:31:48.689Z,38.80
2023-04-14T05:34:16.376Z,38.61
2023-04-14T05:36:43.897Z,39.06
2023-04-14T05:39:11.346Z,39.02
2023-04-14T05:41:39.207Z,38.88
2023-04-14T05:44:06.600Z,39.00
2023-04-14T05:46:38.535Z,38.83
2023-04-14T05:49:05.862Z,39.08
2023-04-14T05:51:33.320Z,38.80
2023-04-14T05:54:00.693Z,38.52
2023-04-14T05:56:30.320Z,38.57
2023-04-14T05:58:58.441Z,38.77
2023-04-14T06:01:25.945Z,38.68
2023-04-14T06:03:58.193Z,38.71
2023-04-14T06:06:26.759Z,38.86
2023-04-14T06:08:57.140Z,38.61
2023-04-14T06:11:27.363Z,38.95
2023-04-14T06:13:57.973Z,38.83
2023-04-14T06:16:26.098Z,38.72
2023-04-14T06:18:55.804Z,38.39
2023-04-14T06:21:26.475Z,38.40
2023-04-14T06:23:56.865Z,38.34
2023-04-14T06:26:35.488Z,38.11
2023-04-14T06:29:08.059Z,38.15
2023-04-14T06:31:39.563Z,38.00
2023-04-14T06:34:10.214Z,37.84
2023-04-14T06:36:39.848Z,37.99
2023-04-14T06:39:07.249Z,37.74
2023-04-14T06:41:37.052Z,37.25
2023-04-14T06:44:05.575Z,37.38
2023-04-14T06:46:36.144Z,37.25
2023-04-14T06:49:04.031Z,37.24
2023-04-14T06:51:36.743Z,36.93
2023-04-14T06:54:08.706Z,36.98
2023-04-14T06:56:41.520Z,36.81
2023-04-14T06:59:09.302Z,36.73
2023-04-14T07:01:36.918Z,36.66
2023-04-14T07:04:12.811Z,36.60
2023-04-14T07:06:40.254Z,36.27
2023-04-14T07:09:10.722Z,36.46
2023-04-14T07:11:43.538Z,35.95
2023-04-14T07:14:11.209Z,35.97
2023-04-14T07:16:39.073Z,35.78
2023-04-14T07:19:06.607Z,35.98
2023-04-14T07:21:34.037Z,36.05
2023-04-14T07:24:01.972Z,35.87
2023-04-14T07:26:33.281Z,35.83
2023-04-14T07:29:09.470Z,35.29
2023-04-14T07:31:38.330Z,35.35
2023-04-14T07:34:11.786Z,35.67
2023-04-14T07:36:39.239Z,35.83
2023-04-14T07:39:10.304Z,35.35
2023-04-14T07:41:40.460Z,35.75
2023-04-14T07:44:08.714Z,35.55
2023-04-14T07:46:35.952Z,35.50
2023-04-14T07:49:07.508Z,36.29
2023-04-14T07:51:34.681Z,36.57
2023-04-14T07:54:04.520Z,36.70
2023-04-14T07:56:37.806Z,36.89
2023-04-14T07:59:13.545Z,37.41
2023-04-14T08:01:43.752Z,37.03
2023-04-14T08:04:11.516Z,37.67
2023-04-14T08:06:44.500Z,37.76
2023-04-14T08:09:19.198Z,37.22
2023-04-14T08:11:46.551Z,37.41
2023-04-14T08:14:13.807Z,37.37
2023-04-14T08:16:41.912Z,37.37
2023-04-14T08:19:09.031Z,37.27
2023-04-14T08:21:37.957Z,37.10
2023-04-14T08:24:06.891Z,37.27
2023-04-14T08:26:34.674Z,37.04
2023-04-14T08:29:08.287Z,37.26
2023-04-14T08:31:37.808Z,36.97
2023-04-14T08:34:05.134Z,37.14
2023-04-14T08:36:35.634Z,37.25
2023-04-14T08:39:05.557Z,36.74
2023-04-14T08:41:35.227Z,36.61
2023-04-14T08:44:02.850Z,36.38
2023-04-14T08:46:38.965Z,36.02
2023-04-14T08:49:13.372Z,36.07
2023-04-14T08:51:47.940Z,35.53
2023-04-14T08:54:24.629Z,35.35
2023-04-14T08:56:53.412Z,35.03
2023-04-14T08:59:21.870Z,34.78
2023-04-14T09:01:52.409Z,34.83
2023-04-14T09:04:24.657Z,34.27
2023-04-14T09:06:56.100Z,33.73
2023-04-14T09:09:24.866Z,33.12
2023-04-14T09:11:52.584Z,33.33
2023-04-14T09:14:21.101Z,33.32
2023-04-14T09:16:49.344Z,33.69
2023-04-14T09:19:17.842Z,33.46
2023-04-14T09:21:53.644Z,33.52
2023-04-14T09:24:32.476Z,32.83
2023-04-14T09:27:14.460Z,32.74
2023-04-14T09:29:46.754Z,32.69
2023-04-14T09:32:17.674Z,32.50
2023-04-14T09:34:56.626Z,31.70
2023-04-14T09:37:26.740Z,31.99
2023-04-14T09:39:56.194Z,31.23
2023-04-14T09:42:39.677Z,30.31
2023-04-14T09:45:08.612Z,30.68
2023-04-14T09:47:36.030Z,30.56
2023-04-14T09:50:04.937Z,30.74
2023-04-14T09:52:43.114Z,30.14
2023-04-14T09:55:12.590Z,30.77
2023-04-14T09:57:44.885Z,30.27
2023-04-14T10:00:21.784Z,30.16
2023-04-14T10:02:58.812Z,29.95
2023-04-14T10:05:34.757Z,29.60
2023-04-14T10:08:04.033Z,29.83
2023-04-14T10:10:31.651Z,30.19
2023-04-14T10:13:00.967Z,30.13
2023-04-14T10:15:28.387Z,30.92
2023-04-14T10:18:07.254Z,30.92
2023-04-14T10:20:49.692Z,30.83
2023-04-14T10:23:29.396Z,30.91
2023-04-14T10:25:59.508Z,31.17
2023-04-14T10:28:36.190Z,30.98
2023-04-14T10:31:11.006Z,30.15
2023-04-14T10:33:45.209Z,29.39
2023-04-14T10:36:29.381Z,29.84
2023-04-14T10:39:06.004Z,29.86
2023-04-14T10:41:49.088Z,29.12
2023-04-14T10:44:33.653Z,29.19
2023-04-14T10:47:02.641Z,28.37
2023-04-14T10:49:42.286Z,28.87
2023-04-14T10:52:15.496Z,29.26
2023-04-14T10:55:09.629Z,28.09
2023-04-14T10:57:45.105Z,29.16
2023-04-14T11:00:27.865Z,28.90
2023-04-14T11:03:10.440Z,28.80
2023-04-14T11:05:48.438Z,29.06
2023-04-14T11:08:25.302Z,28.63
2023-04-14T11:11:09.894Z,27.60
2023-04-14T11:13:41.640Z,28.60
2023-04-14T11:16:09.521Z,29.64
2023-04-14T11:18:45.626Z,29.72
2023-04-14T11:21:18.421Z,29.67
2023-04-14T11:23:47.017Z,30.52
2023-04-14T11:26:14.498Z,31.20
2023-04-14T11:28:44.961Z,31.03
2023-04-14T11:31:16.325Z,31.01
2023-04-14T11:33:44.944Z,31.54
2023-04-14T11:36:16.105Z,30.77
2023-04-14T11:38:43.577Z,31.02
2023-04-14T11:41:14.544Z,31.50
2023-04-14T11:43:47.271Z,32.05
2023-04-14T11:46:16.579Z,32.05
2023-04-14T11:48:44.441Z,31.95
2023-04-14T11:51:11.874Z,32.49
2023-04-14T11:53:43.510Z,31.96
2023-04-14T11:56:15.617Z,31.69
2023-04-14T11:58:43.264Z,31.53
2023-04-14T12:01:36.157Z,32.08
2023-04-14T12:04:07.302Z,32.34
2023-04-14T12:06:41.861Z,30.80
2023-04-14T12:09:15.002Z,30.67
2023-04-14T12:11:54.631Z,31.37
2023-04-14T12:14:36.404Z,30.44
2023-04-14T12:17:08.306Z,30.38
2023-04-14T12:19:41.705Z,30.11
2023-04-14T12:22:31.638Z,31.13
2023-04-14T12:25:02.448Z,31.79
2023-04-14T12:27:37.916Z,30.43
2023-04-14T12:30:18.161Z,30.44
2023-04-14T12:32:50.504Z,30.51
2023-04-14T12:35:38.859Z,30.89
2023-04-14T12:38:30.337Z,30.89
2023-04-14T12:44:01.555Z,33.49
2023-04-14T12:46:39.165Z,32.71
2023-04-14T12:49:43.746Z,32.39
2023-04-14T12:52:37.811Z,33.90
2023-04-14T12:55:21.414Z,34.07
2023-04-14T12:57:54.212Z,33.15
2023-04-14T13:00:23.825Z,32.80
2023-04-14T13:02:51.718Z,32.14
2023-04-14T13:05:19.755Z,31.41
2023-04-14T13:07:47.527Z,30.98
2023-04-14T13:10:18.177Z,30.27
2023-04-14T13:12:46.277Z,29.46
2023-04-14T13:16:10.589Z,30.66
2023-04-14T13:18:07.356Z,31.35
2023-04-14T13:20:39.764Z,30.93
2023-04-14T13:23:11.690Z,30.17
2023-04-14T13:25:40.178Z,30.03
2023-04-14T13:28:09.080Z,30.74
2023-04-14T13:30:40.839Z,30.03
2023-04-14T13:33:12.997Z,28.81
2023-04-14T13:35:41.490Z,28.82
2023-04-14T13:38:11.295Z,28.90
2023-04-14T13:40:46.112Z,29.63
2023-04-14T13:43:21.265Z,29.62
2023-04-14T13:45:58.038Z,29.91
2023-04-14T13:48:26.121Z,31.40
2023-04-14T13:50:56.912Z,33.17
2023-04-14T13:53:26.639Z,32.30
2023-04-14T13:55:59.126Z,32.43
2023-04-14T13:58:27.164Z,32.03
2023-04-14T14:00:56.906Z,33.04
2023-04-14T14:03:26.541Z,33.28
2023-04-14T14:05:58.041Z,33.25
2023-04-14T14:08:30.919Z,34.06
2023-04-14T14:11:01.639Z,34.14
2023-04-14T14:13:30.228Z,34.46
2023-04-14T14:16:08.217Z,35.12
2023-04-14T14:18:46.922Z,33.94
2023-04-14T14:21:17.643Z,35.11
2023-04-14T14:23:47.943Z,36.10
2023-04-14T14:26:20.952Z,35.87
2023-04-14T14:28:51.153Z,36.76
2023-04-14T14:31:19.497Z,38.41
2023-04-14T14:33:48.944Z,38.63
2023-04-14T14:36:19.379Z,37.97
2023-04-14T14:38:48.520Z,36.86
2023-04-14T14:41:15.984Z,37.56
2023-04-14T14:43:46.097Z,37.13
2023-04-14T14:46:13.600Z,36.69
2023-04-14T14:48:40.984Z,36.88
2023-04-14T14:51:20.238Z,37.81
2023-04-14T14:53:52.175Z,37.50
2023-04-14T14:56:22.247Z,36.99
2023-04-14T14:58:51.280Z,37.42
2023-04-14T15:01:23.706Z,36.36
2023-04-14T15:04:01.029Z,37.35
2023-04-14T15:06:35.401Z,36.74
2023-04-14T15:09:04.071Z,35.92
2023-04-14T15:11:31.713Z,36.71
2023-04-14T15:13:59.812Z,36.69
2023-04-14T15:16:30.944Z,38.02
2023-04-14T15:19:12.194Z,37.47
2023-04-14T15:21:52.512Z,37.08
2023-04-14T15:24:23.527Z,37.70
2023-04-14T15:26:53.250Z,36.69
2023-04-14T15:29:26.948Z,36.74
2023-04-14T15:31:54.155Z,37.58
2023-04-14T15:34:23.096Z,37.54
2023-04-14T15:36:52.808Z,37.19
2023-04-14T15:39:23.443Z,37.34
2023-04-14T15:41:52.198Z,37.25
2023-04-14T15:44:19.255Z,36.95
2023-04-14T15:46:46.594Z,36.74
2023-04-14T15:49:14.261Z,36.66
2023-04-14T15:51:41.502Z,35.88
2023-04-14T15:54:09.197Z,36.13
2023-04-14T15:56:37.365Z,36.05
2023-04-14T15:59:07.176Z,36.01
2023-04-14T16:01:34.572Z,36.44
2023-04-14T16:04:02.106Z,37.23
2023-04-14T16:06:32.929Z,37.15
2023-04-14T16:09:01.341Z,37.37
2023-04-14T16:11:33.756Z,37.34
2023-04-14T16:14:01.650Z,38.13
2023-04-14T16:16:29.288Z,43.17
2023-04-14T16:18:59.367Z,44.68
2023-04-14T16:21:29.627Z,43.61
2023-04-14T16:23:59.546Z,43.57
2023-04-14T16:26:28.743Z,43.50
2023-04-14T16:29:00.747Z,42.94
2023-04-14T16:31:32.234Z,43.14
2023-04-14T16:33:59.512Z,43.78
2023-04-14T16:36:29.489Z,41.92
2023-04-14T16:38:56.769Z,43.46
2023-04-14T16:41:24.325Z,43.26
2023-04-14T16:43:51.771Z,42.42
2023-04-14T16:46:18.939Z,42.89
2023-04-14T16:48:48.555Z,41.81
2023-04-14T16:51:15.874Z,40.88
2023-04-14T16:53:46.091Z,41.62
2023-04-14T16:56:13.388Z,41.13
2023-04-14T16:58:45.509Z,41.00
2023-04-14T17:01:18.712Z,40.18
2023-04-14T17:03:46.190Z,39.09
2023-04-14T17:06:17.246Z,38.71
2023-04-14T17:08:45.097Z,39.57
2023-04-14T17:11:12.292Z,37.97
2023-04-14T17:13:46.337Z,37.38
2023-04-14T17:16:19.979Z,37.01
2023-04-14T17:18:48.437Z,36.63
2023-04-14T17:21:17.938Z,36.67
2023-04-14T17:23:45.341Z,37.26
2023-04-14T17:26:17.078Z,36.75
2023-04-14T17:28:47.548Z,37.54
2023-04-14T17:31:14.838Z,37.14
2023-04-14T17:33:45.486Z,37.95
2023-04-14T17:36:17.735Z,38.00
2023-04-14T17:38:48.456Z,37.56
2023-04-14T17:41:15.646Z,38.79
2023-04-14T17:43:45.445Z,38.88
2023-04-14T17:46:17.826Z,38.85
2023-04-14T17:48:45.362Z,38.63
2023-04-14T17:51:14.234Z,37.57
2023-04-14T17:53:43.246Z,36.47
2023-04-14T17:56:11.752Z,36.39
2023-04-14T17:58:39.346Z,36.26
2023-04-14T18:01:10.646Z,35.84
2023-04-14T18:03:38.127Z,35.58
2023-04-14T18:06:05.840Z,35.57
2023-04-14T18:08:35.418Z,35.00
2023-04-14T18:11:03.241Z,34.73
2023-04-14T18:13:30.813Z,34.43
2023-04-14T18:15:58.575Z,34.00
2023-04-14T18:18:26.608Z,34.85
2023-04-14T18:20:56.642Z,34.50
2023-04-14T18:23:28.304Z,34.05
2023-04-14T18:28:43.615Z,33.87
2023-04-14T18:31:14.928Z,33.73
2023-04-14T18:33:42.195Z,33.61
2023-04-14T18:36:09.670Z,33.60
2023-04-14T18:38:44.454Z,33.53
2023-04-14T18:41:15.850Z,34.42
2023-04-14T18:43:44.328Z,34.00
2023-04-14T18:46:12.318Z,33.97
2023-04-14T18:48:43.740Z,33.85
2023-04-14T18:51:19.195Z,34.65
2023-04-14T18:53:49.756Z,34.35
2023-04-14T18:56:19.522Z,34.26
2023-04-14T18:58:46.886Z,34.33
2023-04-14T19:01:17.851Z,35.32
2023-04-14T19:03:47.947Z,34.76
2023-04-14T19:06:18.426Z,35.13
2023-04-14T19:08:57.606Z,35.13
2023-04-14T19:12:50.674Z,36.01
2023-04-14T19:16:08.876Z,35.98
2023-04-14T19:18:40.121Z,37.35
2023-04-14T19:25:39.663Z,38.56
2023-04-14T19:28:10.428Z,39.78
2023-04-14T19:30:44.281Z,38.47
2023-04-14T19:33:19.351Z,37.84
2023-04-14T19:35:52.028Z,41.05
2023-04-14T19:38:28.171Z,41.04
2023-04-14T19:40:59.114Z,42.32
2023-04-14T19:43:37.821Z,41.33
2023-04-14T19:46:10.168Z,42.98
2023-04-14T19:48:52.149Z,42.36
2023-04-14T19:51:22.262Z,42.81
2023-04-14T19:53:53.207Z,42.79
2023-04-14T19:56:25.237Z,42.89
2023-04-14T19:59:01.266Z,42.47
2023-04-14T20:01:32.744Z,40.75
2023-04-14T20:04:08.392Z,39.24
2023-04-14T20:06:49.377Z,37.45
2023-04-14T20:09:28.848Z,37.21
2023-04-14T20:12:06.922Z,37.89
2023-04-14T20:14:41.968Z,37.55
2023-04-14T20:17:09.520Z,36.96
2023-04-14T20:19:44.631Z,32.74
2023-04-14T20:22:15.975Z,32.19
2023-04-14T20:24:54.676Z,31.33
2023-04-14T20:27:24.164Z,30.77
2023-04-14T20:29:51.590Z,30.64
2023-04-14T20:32:30.747Z,30.12
2023-04-14T20:34:59.860Z,29.58
2023-04-14T20:37:29.751Z,29.95
2023-04-14T20:40:07.854Z,29.49
2023-04-14T20:42:40.315Z,29.24
2023-04-14T20:45:22.614Z,28.83
2023-04-14T20:48:00.191Z,29.34
2023-04-14T20:50:36.077Z,28.79
2023-04-14T20:53:05.915Z,28.68
2023-04-14T20:55:33.217Z,32.83
2023-04-14T20:58:07.872Z,34.36
2023-04-14T21:00:35.818Z,35.31
2023-04-14T21:03:05.848Z,35.08
2023-04-14T21:05:33.565Z,31.26
2023-04-14T21:08:03.194Z,31.79
2023-04-14T21:10:30.674Z,32.79
2023-04-14T21:15:30.321Z,34.03
2023-04-14T21:15:57.022Z,33.86
2023-04-14T21:18:24.795Z,33.37
2023-04-14T21:20:58.717Z,33.48
2023-04-14T21:23:31.205Z,33.45
2023-04-14T21:26:03.166Z,33.14
2023-04-14T21:28:39.994Z,31.89
2023-04-14T21:31:11.854Z,32.42
2023-04-14T21:33:41.956Z,34.91
2023-04-14T21:36:21.422Z,37.04
2023-04-14T21:38:48.713Z,40.48
2023-04-14T21:41:18.762Z,41.07
2023-04-14T21:43:50.865Z,41.07
2023-04-14T21:46:18.691Z,41.77
2023-04-14T21:48:48.678Z,43.65
2023-04-14T21:51:29.908Z,43.79
2023-04-14T21:54:00.541Z,44.67
2023-04-14T21:56:38.508Z,46.09
2023-04-14T21:59:09.555Z,47.99
2023-04-14T22:01:38.761Z,45.93
2023-04-14T22:04:22.045Z,47.86
2023-04-14T22:07:03.521Z,47.52
2023-04-14T22:09:37.458Z,48.49
2023-04-14T22:12:09.274Z,48.14
2023-04-14T22:14:45.961Z,49.66
2023-04-14T22:17:25.915Z,49.46
2023-04-14T22:19:59.591Z,49.24
2023-04-14T22:22:38.627Z,49.58
2023-04-14T22:25:20.388Z,49.22
2023-04-14T22:27:58.200Z,50.79
2023-04-14T22:30:39.639Z,51.09
2023-04-14T22:33:17.471Z,51.63
2023-04-14T22:35:48.898Z,51.63
2023-04-14T22:38:22.098Z,52.67
2023-04-14T22:40:52.747Z,52.24
2023-04-14T22:43:23.495Z,52.85
2023-04-14T22:46:17.647Z,52.64
2023-04-14T22:48:57.545Z,54.03
2023-04-14T22:51:31.918Z,54.15
2023-04-14T22:54:04.398Z,52.92
2023-04-14T22:56:45.899Z,52.80
2023-04-14T22:59:18.308Z,52.68
2023-04-14T23:01:55.467Z,52.92
2023-04-14T23:04:34.285Z,53.17
2023-04-14T23:07:22.657Z,53.17
2023-04-14T23:09:58.447Z,51.76
2023-04-14T23:12:28.718Z,51.69
2023-04-14T23:14:58.932Z,51.41
2023-04-14T23:17:40.205Z,51.17
2023-04-14T23:20:20.831Z,51.09
2023-04-14T23:22:51.833Z,50.87
2023-04-14T23:28:10.753Z,49.75
2023-04-14T23:30:53.605Z,50.16
2023-04-14T23:33:28.924Z,49.54
2023-04-14T23:36:01.582Z,49.46
2023-04-14T23:38:32.593Z,48.98
2023-04-14T23:41:15.308Z,48.92
2023-04-14T23:43:55.376Z,48.96
2023-04-14T23:46:29.810Z,48.63
2023-04-14T23:49:24.188Z,48.41
2023-04-14T23:52:05.386Z,48.06
2023-04-14T23:54:38.841Z,47.88
2023-04-14T23:57:21.871Z,47.97
2023-04-14T23:59:59.992Z,47.50
